Time;durP1;ratioP1;P1;durP2;ratioP2;P2;SDS_P1;SDS_P2;PMS_P1;PMS_P2;Temp;Humidity;BMP_temperature;BMP_pressure;BME280_temperature;BME280_humidity;BME280_pressure;Samples;Min_cycle;Max_cycle;Signal;HPM_P1;HPM_P2
2022/04/01 00:00:15;;;;;;;3.53;2.23;;;4.50;67.20;4.50;99012.00;;;;4837214;28;117518;-65
2022/04/01 00:02:41;;;;;;;5.20;2.40;;;4.60;66.50;4.50;99024.00;;;;4839690;28;88709;-65
2022/04/01 00:05:08;;;;;;;2.97;1.67;;;4.60;66.30;4.50;99032.00;;;;4839873;28;87909;-66
2022/04/01 00:07:35;;;;;;;3.77;2.03;;;4.60;66.00;4.50;99029.00;;;;4837717;28;101159;-66
2022/04/01 00:10:01;;;;;;;2.93;2.27;;;4.60;66.40;4.50;99013.00;;;;4838727;28;89066;-66
2022/04/01 00:12:26;;;;;;;3.57;2.17;;;5.30;66.50;4.50;99025.00;;;;4839714;28;87892;-65
2022/04/01 00:14:53;;;;;;;3.13;1.87;;;4.60;65.00;4.50;99026.00;;;;4838681;28;87620;-67
2022/04/01 00:17:19;;;;;;;3.60;2.10;;;4.60;65.30;4.50;99025.00;;;;4838758;28;87709;-66
2022/04/01 00:19:45;;;;;;;6.27;2.40;;;4.60;66.00;4.50;99025.00;;;;4837020;28;118245;-66
2022/04/01 00:22:11;;;;;;;5.83;2.03;;;4.60;66.30;4.50;99020.00;;;;4839464;28;89923;-66
2022/04/01 00:24:37;;;;;;;6.07;1.83;;;4.60;65.30;4.50;99024.00;;;;4840948;28;110490;-66
2022/04/01 00:27:03;;;;;;;5.33;2.07;;;4.60;64.90;4.50;99023.00;;;;4841062;28;109679;-66
2022/04/01 00:29:28;;;;;;;4.03;2.30;;;5.50;65.90;4.50;99020.00;;;;4841286;28;88264;-66
2022/04/01 00:32:01;;;;;;;4.07;1.30;;;4.70;64.90;4.50;99011.00;;;;4839701;28;118199;-66
2022/04/01 00:34:33;;;;;;;2.47;1.63;;;5.40;65.60;4.50;99013.00;;;;4841888;28;87747;-66
2022/04/01 00:37:01;;;;;;;2.33;2.13;;;4.60;64.00;4.40;99013.00;;;;4841794;28;87040;-66
2022/04/01 00:39:30;;;;;;;6.93;2.70;;;5.20;64.40;4.40;99012.00;;;;4841383;28;88042;-66
2022/04/01 00:41:58;;;;;;;4.63;2.03;;;4.60;62.40;4.40;99015.00;;;;4841480;28;88037;-66
2022/04/01 00:44:27;;;;;;;1.83;1.60;;;4.50;62.80;4.40;99018.00;;;;4824224;28;88827;-65
2022/04/01 00:47:10;;;;;;;5.03;2.33;;;4.60;63.00;4.30;99011.00;;;;4841650;28;88427;-66
2022/04/01 00:49:37;;;;;;;4.07;2.10;;;4.50;62.50;4.30;99008.00;;;;4841632;28;89037;-66
2022/04/01 00:52:07;;;;;;;2.13;1.93;;;4.50;62.80;4.30;99007.00;;;;4855643;28;88325;-66
2022/04/01 00:54:35;;;;;;;5.37;1.57;;;4.50;62.30;4.30;99011.00;;;;4849494;28;87793;-66
2022/04/01 00:57:03;;;;;;;2.70;1.57;;;5.00;61.80;4.30;99009.00;;;;4841257;28;88294;-66
2022/04/01 00:59:29;;;;;;;4.17;2.50;;;4.40;61.30;4.30;99016.00;;;;4841016;28;100010;-66
2022/04/01 01:01:55;;;;;;;3.13;1.87;;;4.40;61.60;4.20;99019.00;;;;4840191;28;118052;-67
2022/04/01 01:04:21;;;;;;;9.67;2.07;;;4.50;61.20;4.20;99019.00;;;;4840779;28;87731;-66
2022/04/01 01:06:50;;;;;;;2.57;1.70;;;4.40;60.50;4.20;99008.00;;;;4840774;28;94220;-66
2022/04/01 01:09:18;;;;;;;7.43;2.37;;;4.60;61.10;4.10;99014.00;;;;4856093;28;88933;-65
2022/04/01 01:11:45;;;;;;;7.27;2.40;;;4.30;61.00;4.10;99016.00;;;;4842054;28;89343;-65
2022/04/01 01:14:13;;;;;;;3.37;1.87;;;4.30;60.60;4.10;99019.00;;;;4841357;28;87691;-66
2022/04/01 01:16:44;;;;;;;5.03;2.20;;;4.20;60.80;4.00;99011.00;;;;4842231;28;87763;-66
2022/04/01 01:19:18;;;;;;;5.23;2.07;;;4.40;61.20;3.90;99005.00;;;;4840915;28;88638;-67
2022/04/01 01:21:46;;;;;;;9.50;2.03;;;4.10;60.40;3.90;99013.00;;;;4823592;28;88599;-65
2022/04/01 01:24:15;;;;;;;2.03;1.73;;;4.00;60.10;3.80;99012.00;;;;4841329;28;99962;-66
2022/04/01 01:26:47;;;;;;;4.33;2.10;;;4.00;60.50;3.80;99010.00;;;;4841139;28;87188;-67
2022/04/01 01:29:21;;;;;;;3.50;2.00;;;4.20;60.90;3.70;99006.00;;;;4840860;28;87947;-67
2022/04/01 01:31:46;;;;;;;2.80;2.23;;;3.80;60.30;3.60;99010.00;;;;4840163;28;88014;-66
2022/04/01 01:34:12;;;;;;;4.57;1.77;;;3.80;60.60;3.50;99002.00;;;;4838011;28;108967;-66
2022/04/01 01:36:39;;;;;;;4.10;2.20;;;3.70;59.50;3.50;99000.00;;;;4822383;28;108564;-66
2022/04/01 01:39:04;;;;;;;4.17;1.93;;;3.70;59.90;3.40;99003.00;;;;4840995;28;88634;-66
2022/04/01 01:41:30;;;;;;;8.60;2.33;;;3.60;59.40;3.40;99001.00;;;;4840060;28;111406;-66
2022/04/01 01:43:56;;;;;;;5.73;1.97;;;3.50;59.20;3.30;99000.00;;;;4840237;28;110556;-66
2022/04/01 01:46:26;;;;;;;3.87;2.23;;;3.50;58.80;3.30;98995.00;;;;4839745;28;109812;-66
2022/04/01 01:48:52;;;;;;;2.97;2.07;;;3.50;58.60;3.20;99005.00;;;;4840697;28;87781;-66
2022/04/01 01:56:46;;;;;;;3.87;1.97;;;3.30;58.40;3.10;98981.00;;;;4837648;28;88143;-66
2022/04/01 01:59:12;;;;;;;5.07;2.27;;;3.30;58.30;3.00;98987.00;;;;4821265;28;118643;-65
2022/04/01 02:01:40;;;;;;;3.27;2.40;;;3.20;57.90;3.00;98983.00;;;;4840089;28;109556;-65
2022/04/01 02:04:06;;;;;;;2.93;1.57;;;3.20;57.70;3.00;98981.00;;;;4840834;28;87732;-66
2022/04/01 02:06:32;;;;;;;1.87;1.57;;;3.20;57.60;3.00;98967.00;;;;4840604;28;87829;-65
2022/04/01 02:08:59;;;;;;;3.23;1.50;;;3.20;57.60;3.00;98983.00;;;;4839841;28;111728;-65
2022/04/01 02:11:26;;;;;;;2.87;2.03;;;3.20;57.60;3.00;98985.00;;;;4840625;28;88583;-65
2022/04/01 02:13:52;;;;;;;3.13;2.00;;;3.90;58.10;3.00;98996.00;;;;4823068;28;88037;-66
2022/04/01 02:16:19;;;;;;;4.10;2.43;;;3.20;57.70;3.00;98988.00;;;;4840401;28;87162;-66
2022/04/01 02:18:45;;;;;;;4.20;1.87;;;3.30;57.60;3.10;98988.00;;;;4841662;28;87773;-65
2022/04/01 02:21:11;;;;;;;2.87;2.03;;;3.20;57.20;3.10;98983.00;;;;4840178;28;102916;-65
2022/04/01 02:23:43;;;;;;;1.93;1.77;;;3.30;57.20;3.10;98986.00;;;;4839590;28;89204;-66
2022/04/01 02:26:10;;;;;;;4.00;2.03;;;3.30;56.90;3.10;98982.00;;;;4839979;28;87887;-66
2022/04/01 02:28:37;;;;;;;5.43;2.07;;;3.30;57.10;3.20;98989.00;;;;4822026;28;94626;-65
2022/04/01 02:31:06;;;;;;;6.17;2.07;;;3.30;57.30;3.20;98988.00;;;;4839198;28;88879;-66
2022/04/01 02:33:36;;;;;;;3.97;1.80;;;3.40;57.10;3.20;98988.00;;;;4840160;28;87900;-66
2022/04/01 02:36:04;;;;;;;2.97;1.43;;;3.40;57.60;3.20;98989.00;;;;4821992;28;99470;-65
2022/04/01 02:38:30;;;;;;;3.20;2.23;;;3.40;57.20;3.20;98990.00;;;;4840035;28;88100;-66
2022/04/01 02:40:58;;;;;;;1.97;1.30;;;3.30;57.10;3.20;98986.00;;;;4840514;28;116837;-65
2022/04/01 02:43:25;;;;;;;2.00;1.77;;;3.30;57.30;3.20;98998.00;;;;4839419;28;92773;-65
2022/04/01 02:45:51;;;;;;;2.90;1.20;;;3.70;57.60;3.20;98998.00;;;;4840141;28;87588;-65
2022/04/01 02:48:19;;;;;;;6.10;2.33;;;3.40;57.20;3.20;98989.00;;;;4852774;28;97694;-65
2022/04/01 02:50:47;;;;;;;2.43;2.07;;;3.50;57.20;3.20;98987.00;;;;4841985;28;89341;-66
2022/04/01 02:53:15;;;;;;;1.87;1.63;;;3.30;56.70;3.20;98996.00;;;;4856827;28;104284;-65
2022/04/01 02:55:41;;;;;;;2.03;1.87;;;3.40;56.80;3.10;98987.00;;;;4839392;28;87889;-66
2022/04/01 02:58:07;;;;;;;8.23;2.47;;;3.30;57.00;3.10;99008.00;;;;4839100;28;88143;-66
2022/04/01 03:00:35;;;;;;;2.23;1.63;;;3.30;57.70;3.10;98994.00;;;;4838024;28;88738;-67
2022/04/01 03:03:06;;;;;;;4.57;2.40;;;3.30;59.20;3.10;99005.00;;;;4822521;28;87861;-66
2022/04/01 03:05:44;;;;;;;4.07;2.17;;;3.30;60.90;3.10;99013.00;;;;4820866;29;86945;-66
2022/04/01 03:08:11;;;;;;;5.80;2.10;;;3.30;62.30;3.20;99002.00;;;;4821366;28;89074;-66
2022/04/01 03:10:42;;;;;;;3.03;2.47;;;3.30;62.50;3.10;99028.00;;;;4839630;28;87856;-66
2022/04/01 03:13:08;;;;;;;3.07;1.80;;;3.30;62.80;3.10;99011.00;;;;4838754;28;88807;-66
2022/04/01 03:15:37;;;;;;;4.40;2.07;;;3.30;62.70;3.10;99017.00;;;;4839535;28;87885;-67
2022/04/01 03:18:03;;;;;;;2.83;2.03;;;3.30;63.20;3.10;99017.00;;;;4839105;28;87963;-66
2022/04/01 03:20:35;;;;;;;7.37;1.83;;;3.40;63.00;3.10;99012.00;;;;4838570;28;107617;-67
2022/04/01 03:23:01;;;;;;;3.97;2.40;;;3.30;62.00;3.10;99017.00;;;;4839545;28;87851;-66
2022/04/01 03:25:32;;;;;;;2.70;1.90;;;3.30;61.40;3.10;99005.00;;;;4838703;28;87930;-66
2022/04/01 03:27:59;;;;;;;6.53;2.13;;;3.70;61.80;3.10;99011.00;;;;4838463;28;87994;-66
2022/04/01 03:30:25;;;;;;;2.13;1.60;;;3.30;62.10;3.10;99013.00;;;;4838878;28;87445;-65
2022/04/01 03:32:51;;;;;;;11.43;1.83;;;3.20;62.30;3.10;99005.00;;;;4838484;28;110939;-66
2022/04/01 03:35:18;;;;;;;2.47;1.67;;;3.20;62.80;3.00;99023.00;;;;4837816;28;106346;-67
2022/04/01 03:37:45;;;;;;;3.80;1.90;;;3.20;63.20;3.10;99017.00;;;;4852283;28;88986;-67
2022/04/01 03:40:14;;;;;;;3.33;2.00;;;3.30;63.60;3.00;99018.00;;;;4837905;28;97596;-66
2022/04/01 03:42:45;;;;;;;4.10;1.83;;;3.10;63.00;3.00;99018.00;;;;4837966;28;89580;-66
2022/04/01 03:45:12;;;;;;;2.87;1.80;;;3.20;62.70;3.00;99011.00;;;;4806274;28;88179;-66
2022/04/01 03:48:03;;;;;;;7.83;1.80;;;3.20;62.70;3.00;99028.00;;;;4821853;28;87806;-66
2022/04/01 03:50:38;;;;;;;1.90;1.60;;;3.20;62.80;3.00;99014.00;;;;4839969;28;87848;-66
2022/04/01 03:53:08;;;;;;;3.60;2.07;;;3.10;62.40;3.00;99018.00;;;;4857979;28;87725;-66
2022/04/01 03:55:37;;;;;;;3.37;2.03;;;3.10;62.50;2.90;99026.00;;;;4839204;28;87043;-65
2022/04/01 03:58:13;;;;;;;6.30;2.47;;;3.10;62.30;3.00;99030.00;;;;4837880;28;88526;-66
2022/04/01 04:00:41;;;;;;;5.60;2.37;;;3.70;63.00;3.00;99028.00;;;;4852495;28;87780;-67
2022/04/01 04:03:09;;;;;;;4.20;2.53;;;3.20;63.00;2.90;99032.00;;;;4837863;28;89968;-67
2022/04/01 04:05:37;;;;;;;4.87;2.23;;;3.10;62.90;2.90;99024.00;;;;4837909;28;87774;-66
2022/04/01 04:08:07;;;;;;;2.43;2.07;;;3.10;62.90;2.90;99030.00;;;;4837355;28;99346;-66
2022/04/01 04:10:35;;;;;;;4.13;2.20;;;3.10;63.20;2.90;99032.00;;;;4838063;28;89002;-67
2022/04/01 04:13:06;;;;;;;4.10;1.43;;;3.00;63.50;2.90;99036.00;;;;4838257;28;87692;-66
2022/04/01 04:16:04;;;;;;;1.53;1.43;;;3.00;63.90;2.80;99028.00;;;;4852481;28;88154;-66
2022/04/01 04:18:41;;;;;;;4.87;1.83;;;3.00;64.20;2.80;99030.00;;;;4832354;28;104494;-67
2022/04/01 04:21:11;;;;;;;6.47;1.93;;;3.00;64.90;2.80;99031.00;;;;4838724;28;87783;-65
2022/04/01 04:23:45;;;;;;;4.50;1.77;;;3.10;65.10;2.70;99025.00;;;;4838365;28;88093;-65
2022/04/01 04:26:22;;;;;;;2.73;1.80;;;2.90;65.40;2.70;99036.00;;;;4839258;28;88121;-65
2022/04/01 04:28:50;;;;;;;4.80;2.23;;;3.00;65.80;2.80;99050.00;;;;4850832;28;109730;-65
2022/04/01 04:31:30;;;;;;;2.53;1.97;;;3.00;66.00;2.70;99053.00;;;;4851608;28;89611;-66
2022/04/01 04:33:57;;;;;;;2.20;1.90;;;2.90;66.20;2.70;99044.00;;;;4853170;28;87923;-66
2022/04/01 04:36:35;;;;;;;7.13;1.90;;;2.90;67.50;2.70;99054.00;;;;4838527;28;87862;-65
2022/04/01 04:39:06;;;;;;;4.30;2.63;;;2.90;67.10;2.70;99065.00;;;;4837760;28;88690;-66
2022/04/01 04:41:33;;;;;;;4.33;2.10;;;3.70;68.20;2.60;99052.00;;;;4838143;28;87956;-65
2022/04/01 04:44:00;;;;;;;2.27;1.83;;;2.90;67.90;2.60;99070.00;;;;4838279;28;88305;-65
2022/04/01 04:46:27;;;;;;;7.00;1.93;;;2.80;68.50;2.60;99062.00;;;;4838714;28;86903;-66
2022/04/01 04:48:55;;;;;;;2.90;1.73;;;2.80;69.40;2.50;99059.00;;;;4851263;28;88132;-66
2022/04/01 04:51:41;;;;;;;1.87;1.63;;;3.30;71.80;2.40;99084.00;;;;4847946;28;87719;-65
2022/04/01 04:54:08;;;;;;;4.30;2.37;;;2.70;73.90;2.40;99087.00;;;;4810720;28;88822;-65
2022/04/01 04:56:34;;;;;;;3.20;1.87;;;2.70;75.60;2.30;99071.00;;;;4833658;28;87769;-66
2022/04/01 04:59:02;;;;;;;2.63;2.23;;;2.60;76.60;2.30;99083.00;;;;4834450;28;117381;-66
2022/04/01 05:01:38;;;;;;;3.33;1.83;;;2.50;77.60;2.20;99071.00;;;;4835300;28;110133;-66
2022/04/01 05:04:42;;;;;;;4.20;2.10;;;2.50;78.80;2.10;99082.00;;;;4817032;28;88074;-66
2022/04/01 05:07:26;;;;;;;1.43;1.30;;;2.40;79.90;2.10;99095.00;;;;4835656;28;88067;-65
2022/04/01 05:10:03;;;;;;;2.53;1.87;;;2.40;80.90;2.00;99101.00;;;;4835253;28;105104;-66
2022/04/01 05:12:51;;;;;;;2.70;2.00;;;2.40;82.00;2.00;99088.00;;;;4838992;28;88317;-66
2022/04/01 05:15:36;;;;;;;3.63;1.83;;;2.30;82.70;1.90;99096.00;;;;4812882;28;88046;-66
2022/04/01 05:18:16;;;;;;;8.00;2.20;;;2.20;83.50;1.90;99107.00;;;;4837931;28;92105;-67
2022/04/01 05:20:58;;;;;;;4.80;2.30;;;2.20;84.00;1.90;99104.00;;;;4844266;28;89037;-66
2022/04/01 05:23:55;;;;;;;2.60;1.73;;;2.10;84.50;1.80;99103.00;;;;4830816;28;89829;-66
2022/04/01 05:26:38;;;;;;;3.37;2.10;;;2.10;84.50;1.90;99115.00;;;;4816640;28;88222;-66
2022/04/01 05:29:13;;;;;;;3.07;2.77;;;2.00;83.80;1.80;99116.00;;;;4845712;28;88007;-66
2022/04/01 05:32:07;;;;;;;1.63;1.53;;;2.00;83.50;1.80;99116.00;;;;4837940;28;88946;-65
2022/04/01 05:34:47;;;;;;;2.40;2.07;;;2.00;83.80;1.70;99108.00;;;;4837638;28;88031;-65
2022/04/01 05:37:15;;;;;;;2.73;1.30;;;2.00;84.40;1.70;99112.00;;;;4836991;28;88066;-65
2022/04/01 05:39:47;;;;;;;5.40;1.70;;;2.00;84.70;1.70;99118.00;;;;4838064;28;95859;-66
2022/04/01 05:42:14;;;;;;;3.03;1.70;;;1.90;84.50;1.80;99113.00;;;;4839085;28;88525;-66
2022/04/01 05:44:43;;;;;;;3.17;1.63;;;2.00;84.40;1.80;99131.00;;;;4836646;28;110463;-66
2022/04/01 05:47:10;;;;;;;2.17;1.67;;;2.00;85.00;1.80;99130.00;;;;4836636;28;89160;-66
2022/04/01 05:49:46;;;;;;;2.57;1.77;;;2.00;84.90;1.80;99121.00;;;;4835432;28;87921;-66
2022/04/01 05:52:12;;;;;;;1.83;1.73;;;2.00;84.50;1.80;99134.00;;;;4843626;28;87620;-66
2022/04/01 05:54:42;;;;;;;6.40;2.50;;;1.90;84.10;1.80;99133.00;;;;4837257;28;88192;-65
2022/04/01 05:57:12;;;;;;;2.43;1.70;;;2.00;83.90;1.70;99135.00;;;;4837843;28;87969;-66
2022/04/01 05:59:40;;;;;;;7.80;2.33;;;2.30;83.80;1.70;99136.00;;;;4837726;28;88307;-66
2022/04/01 06:02:37;;;;;;;4.00;1.93;;;2.70;83.20;1.70;99123.00;;;;4837657;28;117447;-65
2022/04/01 06:05:29;;;;;;;2.27;2.07;;;2.00;81.60;1.70;99125.00;;;;4837221;28;87184;-65
2022/04/01 06:08:37;;;;;;;2.17;1.97;;;1.90;78.90;1.70;99123.00;;;;4793538;28;88115;-65
2022/04/01 06:11:33;;;;;;;5.10;2.10;;;2.00;76.50;1.70;99121.00;;;;4818077;28;88067;-66
2022/04/01 06:14:48;;;;;;;3.93;1.90;;;2.00;72.90;1.80;99131.00;;;;4841765;28;89104;-67
2022/04/01 06:17:50;;;;;;;3.13;2.20;;;2.00;71.60;1.80;99123.00;;;;4837794;28;88937;-66
2022/04/01 06:20:17;;;;;;;2.30;1.77;;;2.30;68.30;1.80;99136.00;;;;4835709;28;87688;-66
2022/04/01 06:23:24;;;;;;;2.57;1.83;;;2.00;67.80;1.80;99138.00;;;;4834975;28;99792;-66
2022/04/01 06:25:59;;;;;;;2.37;1.70;;;2.00;69.10;1.80;99137.00;;;;4830284;28;87854;-66
2022/04/01 06:28:34;;;;;;;1.63;1.47;;;2.00;69.40;1.80;99139.00;;;;4836942;28;88371;-66
2022/04/01 06:31:06;;;;;;;2.53;2.00;;;2.00;69.00;1.80;99135.00;;;;4818784;28;102972;-66
2022/04/01 06:33:48;;;;;;;5.33;2.60;;;2.00;68.90;1.80;99147.00;;;;4837408;28;87345;-66
2022/04/01 06:36:26;;;;;;;2.20;1.80;;;2.00;68.90;1.90;99141.00;;;;4835439;28;89026;-66
2022/04/01 06:39:08;;;;;;;2.17;1.93;;;2.00;69.20;1.90;99149.00;;;;4836442;28;109919;-66
2022/04/01 06:41:47;;;;;;;2.63;1.60;;;2.10;69.20;1.90;99155.00;;;;4835657;28;97968;-66
2022/04/01 06:44:13;;;;;;;2.30;1.87;;;2.10;69.50;1.90;99158.00;;;;4836901;28;87994;-67
2022/04/01 06:46:39;;;;;;;3.33;1.80;;;2.10;69.50;1.90;99156.00;;;;4834604;28;116296;-65
2022/04/01 06:49:08;;;;;;;2.13;1.63;;;2.20;69.60;2.00;99159.00;;;;4836705;28;116646;-66
2022/04/01 06:51:38;;;;;;;2.37;2.00;;;2.20;69.60;2.00;99156.00;;;;4847142;28;87762;-66
2022/04/01 06:54:05;;;;;;;3.57;2.03;;;2.10;68.70;2.00;99153.00;;;;4835139;28;88065;-67
2022/04/01 06:56:31;;;;;;;3.13;1.97;;;2.30;68.70;2.10;99175.00;;;;4833076;28;98798;-67
2022/04/01 06:58:57;;;;;;;4.37;2.43;;;2.20;67.90;2.10;99155.00;;;;4819082;28;87181;-65
2022/04/01 07:01:23;;;;;;;5.20;2.20;;;2.20;67.70;2.10;99153.00;;;;4835581;28;109346;-66
2022/04/01 07:03:48;;;;;;;3.90;1.53;;;2.50;67.60;2.10;99155.00;;;;4836037;28;87783;-65
2022/04/01 07:06:15;;;;;;;3.70;1.63;;;2.30;67.00;2.10;99156.00;;;;4836213;28;89925;-66
2022/04/01 07:08:42;;;;;;;2.83;2.13;;;2.30;66.70;2.20;99157.00;;;;4835223;28;89740;-66
2022/04/01 07:11:08;;;;;;;2.83;1.63;;;2.30;66.70;2.20;99173.00;;;;4835141;28;87912;-65
2022/04/01 07:13:33;;;;;;;5.43;2.03;;;2.30;67.30;2.10;99169.00;;;;4835048;28;109328;-66
2022/04/01 07:15:59;;;;;;;6.37;1.73;;;2.30;67.20;2.10;99166.00;;;;4836077;28;87640;-67
2022/04/01 07:18:25;;;;;;;3.17;2.17;;;2.30;66.70;2.10;99177.00;;;;4835540;28;88132;-66
2022/04/01 07:20:52;;;;;;;5.53;2.03;;;2.30;66.80;2.10;99172.00;;;;4838385;28;110488;-66
2022/04/01 07:23:18;;;;;;;2.63;1.60;;;2.30;66.70;2.10;99173.00;;;;4818583;28;87383;-66
2022/04/01 07:25:44;;;;;;;5.30;2.27;;;2.30;66.90;2.20;99164.00;;;;4816903;28;116580;-66
2022/04/01 07:28:09;;;;;;;3.97;1.77;;;2.40;66.80;2.20;99168.00;;;;4828283;28;94854;-66
2022/04/01 07:30:36;;;;;;;3.70;1.97;;;2.30;67.00;2.30;99172.00;;;;4835138;28;88939;-65
2022/04/01 07:33:03;;;;;;;3.33;1.70;;;2.40;66.70;2.30;99173.00;;;;4832980;28;95679;-66
2022/04/01 07:35:29;;;;;;;5.60;1.63;;;2.50;66.50;2.30;99176.00;;;;4835327;28;88983;-66
2022/04/01 07:37:56;;;;;;;2.30;1.77;;;3.40;66.00;2.30;99175.00;;;;4836061;28;88661;-66
2022/04/01 07:40:24;;;;;;;1.13;1.03;;;3.10;65.40;2.40;99186.00;;;;4835530;28;87920;-65
2022/04/01 07:42:51;;;;;;;1.77;1.37;;;2.80;64.90;2.30;99181.00;;;;4837030;28;87815;-65
2022/04/01 07:45:19;;;;;;;2.90;1.80;;;2.50;63.60;2.40;99184.00;;;;4835501;28;89383;-66
2022/04/01 07:47:50;;;;;;;2.23;1.70;;;2.60;63.90;2.40;99177.00;;;;4833234;28;87844;-66
2022/04/01 07:50:18;;;;;;;2.53;1.90;;;2.50;63.50;2.40;99173.00;;;;4835222;28;87867;-66
2022/04/01 07:52:44;;;;;;;2.50;1.83;;;2.50;62.80;2.40;99172.00;;;;4835486;28;98250;-66
2022/04/01 07:55:13;;;;;;;2.33;1.90;;;2.60;62.20;2.40;99176.00;;;;4834722;28;89955;-65
2022/04/01 07:57:39;;;;;;;5.03;2.20;;;2.60;61.60;2.50;99175.00;;;;4835309;28;88356;-66
2022/04/01 08:00:07;;;;;;;2.30;1.80;;;2.70;61.30;2.50;99180.00;;;;4834938;28;101390;-66
2022/04/01 08:02:34;;;;;;;3.47;1.57;;;2.70;60.80;2.50;99175.00;;;;4836917;28;88195;-67
2022/04/01 08:04:59;;;;;;;7.40;2.20;;;2.70;60.90;2.60;99188.00;;;;4835485;28;89971;-65
2022/04/01 08:07:26;;;;;;;2.43;1.60;;;2.70;60.30;2.60;99185.00;;;;4834600;28;116529;-66
2022/04/01 08:09:53;;;;;;;3.67;2.00;;;2.80;59.90;2.70;99194.00;;;;4836334;28;88201;-66
2022/04/01 08:12:19;;;;;;;5.47;2.57;;;2.80;59.80;2.70;99198.00;;;;4835567;28;86946;-64
2022/04/01 08:14:45;;;;;;;3.13;2.03;;;2.90;58.90;2.70;99200.00;;;;4833722;28;108679;-65
2022/04/01 08:17:12;;;;;;;3.53;2.13;;;2.80;59.10;2.80;99193.00;;;;4833838;28;88447;-66
2022/04/01 08:19:39;;;;;;;1.80;1.50;;;3.00;58.90;2.90;99206.00;;;;4834063;28;88961;-66
2022/04/01 08:22:05;;;;;;;3.57;1.77;;;3.00;58.90;2.90;99195.00;;;;4835086;28;87882;-66
2022/04/01 08:24:31;;;;;;;3.53;1.87;;;3.50;58.30;2.90;99197.00;;;;4834336;28;106739;-66
2022/04/01 08:26:59;;;;;;;3.00;2.37;;;3.50;57.20;2.90;99210.00;;;;4834881;28;103550;-66
2022/04/01 08:29:26;;;;;;;2.77;1.80;;;3.10;57.20;3.00;99207.00;;;;4818428;28;87907;-66
2022/04/01 08:31:51;;;;;;;3.03;1.90;;;3.10;56.80;3.00;99217.00;;;;4834674;28;88357;-66
2022/04/01 08:34:17;;;;;;;2.07;1.50;;;3.10;56.80;3.00;99216.00;;;;4834298;28;116954;-65
2022/04/01 08:36:43;;;;;;;4.80;2.03;;;3.20;56.50;3.10;99214.00;;;;4835113;28;87279;-65
2022/04/01 08:39:09;;;;;;;7.60;2.00;;;3.20;56.60;3.10;99213.00;;;;4835353;28;88482;-67
2022/04/01 08:41:35;;;;;;;3.63;2.00;;;3.40;56.50;3.10;99216.00;;;;4835873;28;87878;-66
2022/04/01 08:44:03;;;;;;;5.13;1.73;;;3.80;56.50;3.20;99217.00;;;;4835116;28;118995;-66
2022/04/01 08:46:29;;;;;;;1.90;1.70;;;3.30;56.20;3.20;99228.00;;;;4835623;28;89185;-66
2022/04/01 08:48:55;;;;;;;3.20;2.17;;;3.30;55.80;3.20;99220.00;;;;4831108;28;87792;-66
2022/04/01 08:51:21;;;;;;;2.37;1.93;;;4.00;55.80;3.30;99232.00;;;;4838069;28;93776;-65
2022/04/01 08:53:47;;;;;;;1.80;1.67;;;3.40;55.50;3.40;99230.00;;;;4836968;28;116607;-66
2022/04/01 08:56:13;;;;;;;4.33;1.67;;;3.50;55.50;3.40;99229.00;;;;4841897;28;101541;-66
2022/04/01 08:58:40;;;;;;;3.37;1.37;;;3.60;55.90;3.50;99224.00;;;;4841733;28;87770;-65
2022/04/01 09:01:06;;;;;;;6.83;2.27;;;3.60;56.00;3.60;99240.00;;;;4837874;28;99075;-66
2022/04/01 09:03:35;;;;;;;2.63;2.10;;;3.70;56.10;3.60;99234.00;;;;4837654;28;88697;-66
2022/04/01 09:06:03;;;;;;;3.23;1.70;;;3.70;55.80;3.70;99240.00;;;;4851431;28;88384;-65
2022/04/01 09:08:37;;;;;;;4.73;2.13;;;3.80;55.40;3.70;99247.00;;;;4836635;28;88818;-65
2022/04/01 09:11:16;;;;;;;2.60;1.53;;;3.80;55.00;3.70;99232.00;;;;4832558;28;88149;-65
2022/04/01 09:13:50;;;;;;;1.33;0.90;;;3.80;54.70;3.80;99242.00;;;;4836975;28;88343;-65
2022/04/01 09:16:25;;;;;;;5.10;2.03;;;3.90;55.10;3.80;99242.00;;;;4819497;28;87959;-65
2022/04/01 09:18:54;;;;;;;3.83;1.83;;;3.90;54.80;3.80;99248.00;;;;4837600;28;87471;-65
2022/04/01 09:21:26;;;;;;;1.83;1.70;;;3.90;54.70;3.80;99251.00;;;;4837980;28;88175;-67
2022/04/01 09:23:52;;;;;;;2.67;1.83;;;4.00;54.90;3.90;99244.00;;;;4837182;28;88443;-66
2022/04/01 09:26:38;;;;;;;6.80;2.60;;;3.90;54.30;3.90;99251.00;;;;4837552;28;117276;-65
2022/04/01 09:29:09;;;;;;;2.00;1.43;;;4.00;54.60;3.90;99257.00;;;;4837531;28;87791;-65
2022/04/01 09:31:41;;;;;;;2.93;1.83;;;4.00;53.60;3.90;99259.00;;;;4836161;28;99356;-66
2022/04/01 09:34:13;;;;;;;2.13;1.30;;;3.90;54.00;3.90;99262.00;;;;4835024;28;89370;-65
2022/04/01 09:36:41;;;;;;;3.53;1.57;;;4.40;54.60;3.90;99260.00;;;;4835609;28;88720;-65
2022/04/01 09:39:17;;;;;;;3.97;1.73;;;3.90;54.60;3.90;99257.00;;;;4836283;28;95044;-65
2022/04/01 09:41:52;;;;;;;3.53;1.63;;;4.10;54.10;4.00;99266.00;;;;4837146;28;87940;-65
2022/04/01 09:44:30;;;;;;;2.63;1.87;;;4.70;54.40;4.00;99260.00;;;;4837201;28;89031;-66
2022/04/01 09:47:00;;;;;;;1.97;1.60;;;4.10;54.40;4.00;99266.00;;;;4836054;28;92866;-67
2022/04/01 09:49:31;;;;;;;4.27;1.80;;;4.10;54.60;4.00;99258.00;;;;4836301;28;88108;-66
2022/04/01 09:51:58;;;;;;;4.37;1.70;;;4.20;54.70;4.10;99268.00;;;;4836431;28;94536;-65
2022/04/01 09:54:24;;;;;;;1.40;1.23;;;4.20;55.10;4.20;99264.00;;;;4836273;28;98514;-66
2022/04/01 09:56:54;;;;;;;2.20;1.83;;;4.80;55.20;4.20;99266.00;;;;4834837;28;116783;-66
2022/04/01 09:59:22;;;;;;;2.07;1.80;;;4.30;54.50;4.20;99268.00;;;;4837060;28;88717;-66
2022/04/01 10:01:48;;;;;;;1.93;1.47;;;4.30;54.10;4.20;99258.00;;;;4818803;28;88303;-66
2022/04/01 10:04:14;;;;;;;2.50;1.33;;;4.30;54.20;4.20;99260.00;;;;4837153;28;115625;-67
2022/04/01 10:06:41;;;;;;;2.53;1.87;;;4.40;54.40;4.30;99259.00;;;;4834419;28;95953;-66
2022/04/01 10:09:12;;;;;;;3.33;2.00;;;4.60;54.80;4.40;99268.00;;;;4833375;28;108938;-65
2022/04/01 10:11:40;;;;;;;2.33;1.97;;;4.50;54.50;4.50;99259.00;;;;4835860;28;87522;-66
2022/04/01 10:14:39;;;;;;;2.77;1.83;;;4.50;54.60;4.60;99244.00;;;;4817791;28;89790;-66
2022/04/01 10:17:08;;;;;;;3.37;1.80;;;4.70;54.70;4.60;99251.00;;;;4820739;28;88387;-65
2022/04/01 10:19:39;;;;;;;2.47;1.30;;;4.70;54.00;4.70;99257.00;;;;4835599;28;102895;-66
2022/04/01 10:22:06;;;;;;;2.93;1.73;;;4.80;54.20;4.80;99257.00;;;;4837147;28;87614;-67
2022/04/01 10:24:40;;;;;;;1.47;1.30;;;4.90;54.10;4.90;99250.00;;;;4835330;28;89859;-66
2022/04/01 10:27:26;;;;;;;1.47;1.37;;;5.00;54.30;5.10;99262.00;;;;4818345;28;93775;-66
2022/04/01 10:29:56;;;;;;;2.47;1.50;;;5.00;54.60;5.20;99247.00;;;;4836635;28;88153;-66
2022/04/01 10:32:42;;;;;;;1.70;1.60;;;5.80;54.60;5.20;99251.00;;;;4836039;28;89526;-66
2022/04/01 10:35:27;;;;;;;1.50;1.20;;;5.30;53.70;5.30;99261.00;;;;4818584;28;89945;-66
2022/04/01 10:38:06;;;;;;;1.70;1.23;;;5.30;53.40;5.30;99249.00;;;;4833839;28;87895;-66
2022/04/01 10:40:45;;;;;;;5.30;1.60;;;5.40;52.60;5.40;99255.00;;;;4836372;28;88538;-65
2022/04/01 10:43:21;;;;;;;9.37;1.80;;;5.50;52.90;5.40;99251.00;;;;4836344;28;86943;-65
2022/04/01 10:46:16;;;;;;;1.17;0.97;;;5.50;52.40;5.50;99255.00;;;;4829810;28;88705;-66
2022/04/01 10:52:12;;;;;;;5.53;1.60;;;5.60;51.70;5.60;99250.00;;;;4831035;28;88976;-65
2022/04/01 10:54:42;;;;;;;2.80;1.47;;;5.60;51.40;5.70;99246.00;;;;4817452;28;108646;-66
2022/04/01 10:57:35;;;;;;;4.13;1.70;;;6.40;51.50;5.80;99247.00;;;;4835874;28;88548;-65
2022/04/01 11:00:08;;;;;;;2.13;1.30;;;5.70;51.30;5.90;99253.00;;;;4820524;28;88065;-65
2022/04/01 11:02:34;;;;;;;1.83;1.73;;;5.90;51.50;6.00;99255.00;;;;4835861;28;87890;-66
2022/04/01 11:05:00;;;;;;;1.40;1.30;;;6.50;52.00;6.10;99259.00;;;;4834838;28;101868;-67
2022/04/01 11:07:26;;;;;;;2.10;1.30;;;6.20;51.50;6.10;99251.00;;;;4817574;28;87679;-66
2022/04/01 11:10:04;;;;;;;1.93;1.57;;;6.50;51.50;6.20;99257.00;;;;4835569;28;94642;-65
2022/04/01 11:12:39;;;;;;;1.40;1.30;;;6.30;51.30;6.30;99260.00;;;;4834050;28;87860;-66
2022/04/01 11:15:08;;;;;;;0.90;0.90;;;6.30;50.50;6.40;99257.00;;;;4818026;28;87864;-67
2022/04/01 11:17:34;;;;;;;2.30;1.13;;;6.70;50.30;6.40;99253.00;;;;4836241;28;88950;-66
2022/04/01 11:20:19;;;;;;;4.33;1.73;;;6.60;49.70;6.50;99276.00;;;;4835571;28;100614;-66
2022/04/01 11:22:54;;;;;;;1.70;1.60;;;6.50;50.00;6.50;99245.00;;;;4836253;28;87972;-67
2022/04/01 11:25:23;;;;;;;2.23;1.47;;;6.90;49.90;6.50;99255.00;;;;4834732;28;87678;-66
2022/04/01 11:28:05;;;;;;;3.00;1.40;;;6.40;49.50;6.50;99254.00;;;;4836236;28;88040;-65
2022/04/01 11:30:40;;;;;;;2.43;1.23;;;6.50;49.00;6.50;99252.00;;;;4828340;28;88882;-66
2022/04/01 11:33:18;;;;;;;6.00;1.73;;;6.60;48.70;6.50;99251.00;;;;4834899;28;96035;-67